Port Coquitlam, Canada
Current Conditions -  °F | °C
As of 12:00 PM on Monday 24 Nov 2014 (Local Time) from CYVR Reporting Station
Light Rain Light Rain  
Wind Chill: 40°   Ceiling: 4300
Heat Index: 46°   Visibility: 10mi
Dew Point: 43°   Wind: 14mph
Humidity: 87%   Direction: 80°E
Pressure: 30.23"   Gusts: NA
Location:  49.26°N, 122.78°W
Report Text: CYVR 242000Z 08012KT 10SM -RA SCT025 BKN043 OVC070 08/06 A3023 RMK SC3SC4AC1 SLP237
Loading
Personal Weather Stations






























Interactive Weather Map New forecast layout! Learn more

10-Day Weather Forecast

Advertisements
Track Severe Weather on mobile